sensor_id;sensor_type;location;lat;lon;timestamp;temperature;humidity
18406;DHT22;9329;48.720;9.588;2022-09-09T00:01:54;15.90;99.90
18406;DHT22;9329;48.720;9.588;2022-09-09T00:04:27;15.80;99.90
18406;DHT22;9329;48.720;9.588;2022-09-09T00:07:03;15.80;99.90
18406;DHT22;9329;48.720;9.588;2022-09-09T00:09:35;16.30;99.90
18406;DHT22;9329;48.720;9.588;2022-09-09T00:12:11;16.30;99.90
18406;DHT22;9329;48.720;9.588;2022-09-09T00:14:45;16.10;99.90
18406;DHT22;9329;48.720;9.588;2022-09-09T00:17:26;16.20;99.90
18406;DHT22;9329;48.720;9.588;2022-09-09T00:20:04;16.20;99.90
18406;DHT22;9329;48.720;9.588;2022-09-09T00:22:40;15.90;99.90
18406;DHT22;9329;48.720;9.588;2022-09-09T00:25:15;15.80;99.90
18406;DHT22;9329;48.720;9.588;2022-09-09T00:27:48;15.80;99.90
18406;DHT22;9329;48.720;9.588;2022-09-09T00:30:18;15.70;99.90
18406;DHT22;9329;48.720;9.588;2022-09-09T00:32:50;15.80;99.90
18406;DHT22;9329;48.720;9.588;2022-09-09T00:35:23;15.80;99.90
18406;DHT22;9329;48.720;9.588;2022-09-09T00:37:53;15.60;99.90
18406;DHT22;9329;48.720;9.588;2022-09-09T00:40:31;15.80;99.90
18406;DHT22;9329;48.720;9.588;2022-09-09T00:43:10;15.70;99.90
18406;DHT22;9329;48.720;9.588;2022-09-09T00:49:03;15.70;99.90
18406;DHT22;9329;48.720;9.588;2022-09-09T00:51:41;15.70;99.90
18406;DHT22;9329;48.720;9.588;2022-09-09T00:54:28;15.80;99.90
18406;DHT22;9329;48.720;9.588;2022-09-09T00:57:07;16.30;99.90
18406;DHT22;9329;48.720;9.588;2022-09-09T00:59:45;16.30;99.90
18406;DHT22;9329;48.720;9.588;2022-09-09T01:02:21;16.50;99.90
18406;DHT22;9329;48.720;9.588;2022-09-09T01:04:52;16.40;99.90
18406;DHT22;9329;48.720;9.588;2022-09-09T01:07:20;16.70;99.90
18406;DHT22;9329;48.720;9.588;2022-09-09T01:09:56;16.30;99.90
18406;DHT22;9329;48.720;9.588;2022-09-09T01:12:29;16.20;99.90
18406;DHT22;9329;48.720;9.588;2022-09-09T01:15:08;16.40;99.90
18406;DHT22;9329;48.720;9.588;2022-09-09T01:17:50;16.30;99.90
18406;DHT22;9329;48.720;9.588;2022-09-09T01:20:23;16.20;99.90
18406;DHT22;9329;48.720;9.588;2022-09-09T01:23:04;16.40;99.90
18406;DHT22;9329;48.720;9.588;2022-09-09T01:26:12;16.30;99.90
18406;DHT22;9329;48.720;9.588;2022-09-09T01:28:42;16.30;99.90
18406;DHT22;9329;48.720;9.588;2022-09-09T01:31:17;16.00;99.90
18406;DHT22;9329;48.720;9.588;2022-09-09T01:33:46;15.50;99.90
18406;DHT22;9329;48.720;9.588;2022-09-09T01:36:21;15.60;99.90
18406;DHT22;9329;48.720;9.588;2022-09-09T01:38:52;15.70;99.90
18406;DHT22;9329;48.720;9.588;2022-09-09T01:41:21;16.00;99.90
18406;DHT22;9329;48.720;9.588;2022-09-09T01:44:09;16.00;99.90
18406;DHT22;9329;48.720;9.588;2022-09-09T01:46:38;16.30;99.90
18406;DHT22;9329;48.720;9.588;2022-09-09T01:49:12;16.00;99.90
18406;DHT22;9329;48.720;9.588;2022-09-09T01:51:41;16.00;99.90
18406;DHT22;9329;48.720;9.588;2022-09-09T01:54:12;16.10;99.90
18406;DHT22;9329;48.720;9.588;2022-09-09T01:56:50;15.80;99.90
18406;DHT22;9329;48.720;9.588;2022-09-09T01:59:35;15.70;99.90
18406;DHT22;9329;48.720;9.588;2022-09-09T02:02:09;15.60;99.90
18406;DHT22;9329;48.720;9.588;2022-09-09T02:04:42;15.50;99.90
18406;DHT22;9329;48.720;9.588;2022-09-09T02:07:31;15.20;99.90
18406;DHT22;9329;48.720;9.588;2022-09-09T02:10:07;15.20;99.90
18406;DHT22;9329;48.720;9.588;2022-09-09T02:12:40;15.40;99.90
18406;DHT22;9329;48.720;9.588;2022-09-09T02:15:16;15.30;99.90
18406;DHT22;9329;48.720;9.588;2022-09-09T02:17:50;15.40;99.90
18406;DHT22;9329;48.720;9.588;2022-09-09T02:20:19;15.50;99.90
18406;DHT22;9329;48.720;9.588;2022-09-09T02:22:54;15.40;99.90
18406;DHT22;9329;48.720;9.588;2022-09-09T02:25:26;15.70;99.90
18406;DHT22;9329;48.720;9.588;2022-09-09T02:28:02;15.80;99.90
18406;DHT22;9329;48.720;9.588;2022-09-09T02:30:31;15.90;99.90
18406;DHT22;9329;48.720;9.588;2022-09-09T02:33:02;15.80;99.90
18406;DHT22;9329;48.720;9.588;2022-09-09T02:35:45;16.00;99.90
18406;DHT22;9329;48.720;9.588;2022-09-09T02:38:15;16.20;99.90
18406;DHT22;9329;48.720;9.588;2022-09-09T02:40:53;16.00;99.90
18406;DHT22;9329;48.720;9.588;2022-09-09T02:43:21;16.20;99.90
18406;DHT22;9329;48.720;9.588;2022-09-09T02:45:55;15.70;99.90
18406;DHT22;9329;48.720;9.588;2022-09-09T02:48:30;15.80;99.90
18406;DHT22;9329;48.720;9.588;2022-09-09T02:51:04;15.90;99.90
18406;DHT22;9329;48.720;9.588;2022-09-09T02:53:41;15.50;99.90
18406;DHT22;9329;48.720;9.588;2022-09-09T02:56:15;15.10;99.90
18406;DHT22;9329;48.720;9.588;2022-09-09T02:58:46;15.30;99.90
18406;DHT22;9329;48.720;9.588;2022-09-09T03:01:13;15.00;99.90
18406;DHT22;9329;48.720;9.588;2022-09-09T03:03:40;15.60;99.90
18406;DHT22;9329;48.720;9.588;2022-09-09T03:06:11;15.80;99.90
18406;DHT22;9329;48.720;9.588;2022-09-09T03:08:40;15.80;99.90
18406;DHT22;9329;48.720;9.588;2022-09-09T03:11:08;15.40;99.90
18406;DHT22;9329;48.720;9.588;2022-09-09T03:13:36;15.30;99.90
18406;DHT22;9329;48.720;9.588;2022-09-09T03:16:07;15.10;99.90
18406;DHT22;9329;48.720;9.588;2022-09-09T03:18:40;14.90;99.90
18406;DHT22;9329;48.720;9.588;2022-09-09T03:21:11;15.40;99.90
18406;DHT22;9329;48.720;9.588;2022-09-09T03:23:39;15.80;99.90
18406;DHT22;9329;48.720;9.588;2022-09-09T03:26:06;15.60;99.90
18406;DHT22;9329;48.720;9.588;2022-09-09T03:28:39;15.10;99.90
18406;DHT22;9329;48.720;9.588;2022-09-09T03:31:08;15.30;99.90
18406;DHT22;9329;48.720;9.588;2022-09-09T03:33:39;15.40;99.90
18406;DHT22;9329;48.720;9.588;2022-09-09T03:36:07;15.30;99.90
18406;DHT22;9329;48.720;9.588;2022-09-09T03:38:35;15.70;99.90
18406;DHT22;9329;48.720;9.588;2022-09-09T03:41:02;15.70;99.90
18406;DHT22;9329;48.720;9.588;2022-09-09T03:43:30;15.50;99.90
18406;DHT22;9329;48.720;9.588;2022-09-09T03:45:57;15.60;99.90
18406;DHT22;9329;48.720;9.588;2022-09-09T03:48:27;15.90;99.90
18406;DHT22;9329;48.720;9.588;2022-09-09T03:50:55;15.70;99.90
18406;DHT22;9329;48.720;9.588;2022-09-09T03:53:24;15.50;99.90
18406;DHT22;9329;48.720;9.588;2022-09-09T03:55:53;15.40;99.90
18406;DHT22;9329;48.720;9.588;2022-09-09T03:58:23;15.80;99.90
18406;DHT22;9329;48.720;9.588;2022-09-09T04:00:55;16.30;99.90
18406;DHT22;9329;48.720;9.588;2022-09-09T04:03:23;16.00;99.90
18406;DHT22;9329;48.720;9.588;2022-09-09T04:06:01;15.80;99.90
18406;DHT22;9329;48.720;9.588;2022-09-09T04:08:30;15.70;99.90
18406;DHT22;9329;48.720;9.588;2022-09-09T04:11:02;15.90;99.90
18406;DHT22;9329;48.720;9.588;2022-09-09T04:13:33;15.80;99.90
18406;DHT22;9329;48.720;9.588;2022-09-09T04:16:03;15.70;99.90
18406;DHT22;9329;48.720;9.588;2022-09-09T04:18:33;15.60;99.90
18406;DHT22;9329;48.720;9.588;2022-09-09T04:21:02;16.10;99.90
18406;DHT22;9329;48.720;9.588;2022-09-09T04:23:32;15.90;99.90
18406;DHT22;9329;48.720;9.588;2022-09-09T04:26:03;15.80;99.90
18406;DHT22;9329;48.720;9.588;2022-09-09T04:28:33;15.70;99.90
18406;DHT22;9329;48.720;9.588;2022-09-09T04:31:05;15.80;99.90
18406;DHT22;9329;48.720;9.588;2022-09-09T04:33:35;15.90;99.90
18406;DHT22;9329;48.720;9.588;2022-09-09T04:36:05;15.40;99.90
18406;DHT22;9329;48.720;9.588;2022-09-09T04:38:36;15.40;99.90
18406;DHT22;9329;48.720;9.588;2022-09-09T04:41:07;15.50;99.90
18406;DHT22;9329;48.720;9.588;2022-09-09T04:43:38;15.50;99.90
18406;DHT22;9329;48.720;9.588;2022-09-09T04:46:09;15.50;99.90
18406;DHT22;9329;48.720;9.588;2022-09-09T04:48:39;15.30;99.90
18406;DHT22;9329;48.720;9.588;2022-09-09T04:51:12;15.60;99.90
18406;DHT22;9329;48.720;9.588;2022-09-09T04:53:40;15.40;99.90
18406;DHT22;9329;48.720;9.588;2022-09-09T04:56:09;15.70;99.90
18406;DHT22;9329;48.720;9.588;2022-09-09T04:58:44;15.40;99.90
18406;DHT22;9329;48.720;9.588;2022-09-09T05:01:14;15.30;99.90
18406;DHT22;9329;48.720;9.588;2022-09-09T05:03:44;15.40;99.90
18406;DHT22;9329;48.720;9.588;2022-09-09T05:06:17;15.30;99.90
18406;DHT22;9329;48.720;9.588;2022-09-09T05:08:47;14.70;99.90
18406;DHT22;9329;48.720;9.588;2022-09-09T05:11:19;14.50;99.90
18406;DHT22;9329;48.720;9.588;2022-09-09T05:13:50;14.60;99.90
18406;DHT22;9329;48.720;9.588;2022-09-09T05:16:18;14.90;99.90
18406;DHT22;9329;48.720;9.588;2022-09-09T05:18:46;15.10;99.90
18406;DHT22;9329;48.720;9.588;2022-09-09T05:21:20;15.60;99.90
18406;DHT22;9329;48.720;9.588;2022-09-09T05:23:49;15.50;99.90
18406;DHT22;9329;48.720;9.588;2022-09-09T05:26:19;15.40;99.90
18406;DHT22;9329;48.720;9.588;2022-09-09T05:28:48;15.60;99.90
18406;DHT22;9329;48.720;9.588;2022-09-09T05:31:18;15.60;99.90
18406;DHT22;9329;48.720;9.588;2022-09-09T05:33:48;15.50;99.90
18406;DHT22;9329;48.720;9.588;2022-09-09T05:36:19;15.60;99.90
18406;DHT22;9329;48.720;9.588;2022-09-09T05:38:49;15.60;99.90
18406;DHT22;9329;48.720;9.588;2022-09-09T05:41:17;15.40;99.90
18406;DHT22;9329;48.720;9.588;2022-09-09T05:43:46;16.00;99.90
18406;DHT22;9329;48.720;9.588;2022-09-09T05:46:16;16.20;99.90
18406;DHT22;9329;48.720;9.588;2022-09-09T05:48:46;16.20;99.90
18406;DHT22;9329;48.720;9.588;2022-09-09T05:51:19;16.60;99.90
18406;DHT22;9329;48.720;9.588;2022-09-09T05:53:48;16.20;99.90
18406;DHT22;9329;48.720;9.588;2022-09-09T05:56:18;16.50;99.90
18406;DHT22;9329;48.720;9.588;2022-09-09T05:58:46;16.30;99.90
18406;DHT22;9329;48.720;9.588;2022-09-09T06:01:17;16.20;99.90
18406;DHT22;9329;48.720;9.588;2022-09-09T06:03:46;16.00;99.90
18406;DHT22;9329;48.720;9.588;2022-09-09T06:06:16;16.60;99.90
18406;DHT22;9329;48.720;9.588;2022-09-09T06:08:45;16.70;99.90
18406;DHT22;9329;48.720;9.588;2022-09-09T06:11:16;16.20;99.90
18406;DHT22;9329;48.720;9.588;2022-09-09T06:13:43;16.20;99.90
18406;DHT22;9329;48.720;9.588;2022-09-09T06:16:13;16.50;99.90
18406;DHT22;9329;48.720;9.588;2022-09-09T06:18:45;16.40;99.90
18406;DHT22;9329;48.720;9.588;2022-09-09T06:21:16;16.90;99.90
18406;DHT22;9329;48.720;9.588;2022-09-09T06:23:48;17.60;99.90
18406;DHT22;9329;48.720;9.588;2022-09-09T06:26:20;17.20;99.90
18406;DHT22;9329;48.720;9.588;2022-09-09T06:28:50;17.70;99.90
18406;DHT22;9329;48.720;9.588;2022-09-09T06:31:21;18.30;99.90
18406;DHT22;9329;48.720;9.588;2022-09-09T06:33:49;18.10;99.90
18406;DHT22;9329;48.720;9.588;2022-09-09T06:36:19;18.40;99.90
18406;DHT22;9329;48.720;9.588;2022-09-09T06:38:48;18.30;99.90
18406;DHT22;9329;48.720;9.588;2022-09-09T06:41:16;17.80;99.90
18406;DHT22;9329;48.720;9.588;2022-09-09T06:43:44;17.80;99.90
18406;DHT22;9329;48.720;9.588;2022-09-09T06:46:14;17.90;99.90
18406;DHT22;9329;48.720;9.588;2022-09-09T06:48:42;18.00;99.90
18406;DHT22;9329;48.720;9.588;2022-09-09T06:51:13;17.90;99.90
18406;DHT22;9329;48.720;9.588;2022-09-09T06:53:42;18.00;99.90
18406;DHT22;9329;48.720;9.588;2022-09-09T06:56:20;18.10;99.90
18406;DHT22;9329;48.720;9.588;2022-09-09T06:58:51;18.30;99.90
18406;DHT22;9329;48.720;9.588;2022-09-09T07:01:25;18.80;99.90
18406;DHT22;9329;48.720;9.588;2022-09-09T07:03:56;19.60;99.90
18406;DHT22;9329;48.720;9.588;2022-09-09T07:06:26;19.70;99.90
18406;DHT22;9329;48.720;9.588;2022-09-09T07:08:57;19.70;99.90
18406;DHT22;9329;48.720;9.588;2022-09-09T07:11:30;19.90;99.90
18406;DHT22;9329;48.720;9.588;2022-09-09T07:13:58;19.90;99.90
18406;DHT22;9329;48.720;9.588;2022-09-09T07:16:26;20.00;99.90
18406;DHT22;9329;48.720;9.588;2022-09-09T07:18:56;20.50;99.90
18406;DHT22;9329;48.720;9.588;2022-09-09T07:21:25;21.20;99.90
18406;DHT22;9329;48.720;9.588;2022-09-09T07:23:54;20.90;99.90
18406;DHT22;9329;48.720;9.588;2022-09-09T07:26:24;20.50;99.90
18406;DHT22;9329;48.720;9.588;2022-09-09T07:28:54;19.90;99.90
18406;DHT22;9329;48.720;9.588;2022-09-09T07:31:24;19.40;99.90
18406;DHT22;9329;48.720;9.588;2022-09-09T07:33:53;19.50;99.90
18406;DHT22;9329;48.720;9.588;2022-09-09T07:36:22;19.70;99.90
18406;DHT22;9329;48.720;9.588;2022-09-09T07:38:51;19.70;99.90
18406;DHT22;9329;48.720;9.588;2022-09-09T07:41:20;19.70;99.90
18406;DHT22;9329;48.720;9.588;2022-09-09T07:43:49;19.90;99.90
18406;DHT22;9329;48.720;9.588;2022-09-09T07:46:19;20.00;99.90
18406;DHT22;9329;48.720;9.588;2022-09-09T07:48:48;19.80;99.90
18406;DHT22;9329;48.720;9.588;2022-09-09T07:51:20;19.80;99.90
18406;DHT22;9329;48.720;9.588;2022-09-09T07:53:53;20.20;99.90
18406;DHT22;9329;48.720;9.588;2022-09-09T07:56:21;20.00;99.90
18406;DHT22;9329;48.720;9.588;2022-09-09T07:58:50;20.50;99.90
18406;DHT22;9329;48.720;9.588;2022-09-09T08:01:20;20.60;99.90
18406;DHT22;9329;48.720;9.588;2022-09-09T08:03:53;21.10;99.90
18406;DHT22;9329;48.720;9.588;2022-09-09T08:06:20;21.60;99.90
18406;DHT22;9329;48.720;9.588;2022-09-09T08:08:50;21.90;99.90
18406;DHT22;9329;48.720;9.588;2022-09-09T08:11:21;21.70;99.90
18406;DHT22;9329;48.720;9.588;2022-09-09T08:13:50;21.30;99.90
18406;DHT22;9329;48.720;9.588;2022-09-09T08:16:19;21.20;99.90
18406;DHT22;9329;48.720;9.588;2022-09-09T08:18:54;21.20;99.90
18406;DHT22;9329;48.720;9.588;2022-09-09T08:21:23;21.00;99.90
18406;DHT22;9329;48.720;9.588;2022-09-09T08:24:01;20.90;99.90
18406;DHT22;9329;48.720;9.588;2022-09-09T08:26:31;21.00;99.90
18406;DHT22;9329;48.720;9.588;2022-09-09T08:29:02;21.50;99.90
18406;DHT22;9329;48.720;9.588;2022-09-09T08:31:35;21.20;99.90
18406;DHT22;9329;48.720;9.588;2022-09-09T08:34:06;20.80;99.90
18406;DHT22;9329;48.720;9.588;2022-09-09T08:36:39;20.70;99.90
18406;DHT22;9329;48.720;9.588;2022-09-09T08:39:08;20.80;99.90
18406;DHT22;9329;48.720;9.588;2022-09-09T08:44:50;21.30;99.90
18406;DHT22;9329;48.720;9.588;2022-09-09T08:47:34;21.60;99.90
18406;DHT22;9329;48.720;9.588;2022-09-09T08:50:21;21.60;99.90
18406;DHT22;9329;48.720;9.588;2022-09-09T08:52:56;21.90;99.90
18406;DHT22;9329;48.720;9.588;2022-09-09T08:55:37;22.40;99.90
18406;DHT22;9329;48.720;9.588;2022-09-09T08:58:11;22.70;99.90
18406;DHT22;9329;48.720;9.588;2022-09-09T09:00:47;22.80;99.90
18406;DHT22;9329;48.720;9.588;2022-09-09T09:03:30;22.60;99.90
18406;DHT22;9329;48.720;9.588;2022-09-09T09:06:04;22.50;99.90
18406;DHT22;9329;48.720;9.588;2022-09-09T09:08:35;22.60;99.90
18406;DHT22;9329;48.720;9.588;2022-09-09T09:11:09;22.60;99.90
18406;DHT22;9329;48.720;9.588;2022-09-09T09:13:41;22.30;99.90
18406;DHT22;9329;48.720;9.588;2022-09-09T09:16:19;22.40;99.90
18406;DHT22;9329;48.720;9.588;2022-09-09T09:18:51;22.60;99.90
18406;DHT22;9329;48.720;9.588;2022-09-09T09:21:25;22.60;99.90
18406;DHT22;9329;48.720;9.588;2022-09-09T09:23:57;22.50;99.90
18406;DHT22;9329;48.720;9.588;2022-09-09T09:26:30;22.60;99.90
18406;DHT22;9329;48.720;9.588;2022-09-09T09:28:58;22.80;99.90
18406;DHT22;9329;48.720;9.588;2022-09-09T09:31:28;22.80;99.90
18406;DHT22;9329;48.720;9.588;2022-09-09T09:33:57;22.90;99.90
18406;DHT22;9329;48.720;9.588;2022-09-09T09:36:34;22.90;99.90
18406;DHT22;9329;48.720;9.588;2022-09-09T09:39:04;23.00;99.90
18406;DHT22;9329;48.720;9.588;2022-09-09T09:41:33;23.50;99.90
18406;DHT22;9329;48.720;9.588;2022-09-09T09:44:01;24.00;99.90
18406;DHT22;9329;48.720;9.588;2022-09-09T09:46:29;24.30;99.90
18406;DHT22;9329;48.720;9.588;2022-09-09T09:49:08;24.60;99.90
18406;DHT22;9329;48.720;9.588;2022-09-09T09:51:38;24.50;99.90
18406;DHT22;9329;48.720;9.588;2022-09-09T09:54:08;24.70;99.90
18406;DHT22;9329;48.720;9.588;2022-09-09T09:56:37;25.00;99.90
18406;DHT22;9329;48.720;9.588;2022-09-09T09:59:05;24.90;99.90
18406;DHT22;9329;48.720;9.588;2022-09-09T10:01:35;24.70;99.90
18406;DHT22;9329;48.720;9.588;2022-09-09T10:04:15;24.60;99.90
18406;DHT22;9329;48.720;9.588;2022-09-09T10:06:44;24.60;99.90
18406;DHT22;9329;48.720;9.588;2022-09-09T10:09:20;24.60;99.90
18406;DHT22;9329;48.720;9.588;2022-09-09T10:11:49;24.80;99.90
18406;DHT22;9329;48.720;9.588;2022-09-09T10:14:20;24.90;99.90
18406;DHT22;9329;48.720;9.588;2022-09-09T10:16:54;24.80;99.90
18406;DHT22;9329;48.720;9.588;2022-09-09T10:19:29;24.40;99.90
18406;DHT22;9329;48.720;9.588;2022-09-09T10:22:05;24.20;99.90
18406;DHT22;9329;48.720;9.588;2022-09-09T10:27:23;24.10;99.90
18406;DHT22;9329;48.720;9.588;2022-09-09T10:30:03;23.90;99.90
18406;DHT22;9329;48.720;9.588;2022-09-09T10:32:38;24.00;99.90
18406;DHT22;9329;48.720;9.588;2022-09-09T10:35:12;24.20;99.90
18406;DHT22;9329;48.720;9.588;2022-09-09T10:40:26;24.40;99.90
18406;DHT22;9329;48.720;9.588;2022-09-09T10:42:58;24.20;99.90
18406;DHT22;9329;48.720;9.588;2022-09-09T10:45:28;24.20;99.90
18406;DHT22;9329;48.720;9.588;2022-09-09T10:48:03;23.80;97.60
18406;DHT22;9329;48.720;9.588;2022-09-09T10:50:46;23.70;98.60
18406;DHT22;9329;48.720;9.588;2022-09-09T10:53:35;23.40;99.90
18406;DHT22;9329;48.720;9.588;2022-09-09T10:56:04;23.80;99.90
18406;DHT22;9329;48.720;9.588;2022-09-09T10:58:34;24.20;99.90
18406;DHT22;9329;48.720;9.588;2022-09-09T11:01:08;24.50;96.40
18406;DHT22;9329;48.720;9.588;2022-09-09T11:03:36;24.30;95.60
18406;DHT22;9329;48.720;9.588;2022-09-09T11:06:09;24.10;97.10
18406;DHT22;9329;48.720;9.588;2022-09-09T11:08:39;24.20;98.30
18406;DHT22;9329;48.720;9.588;2022-09-09T11:11:07;24.10;99.50
18406;DHT22;9329;48.720;9.588;2022-09-09T11:13:38;24.30;98.40
18406;DHT22;9329;48.720;9.588;2022-09-09T11:16:11;24.30;98.70
18406;DHT22;9329;48.720;9.588;2022-09-09T11:18:41;24.50;96.70
18406;DHT22;9329;48.720;9.588;2022-09-09T11:21:16;24.30;97.40
18406;DHT22;9329;48.720;9.588;2022-09-09T11:23:45;24.20;96.40
18406;DHT22;9329;48.720;9.588;2022-09-09T11:26:15;24.50;98.60
18406;DHT22;9329;48.720;9.588;2022-09-09T11:28:47;24.60;99.30
18406;DHT22;9329;48.720;9.588;2022-09-09T11:31:21;24.40;98.10
18406;DHT22;9329;48.720;9.588;2022-09-09T11:34:15;24.70;96.80
18406;DHT22;9329;48.720;9.588;2022-09-09T11:36:50;25.10;95.00
18406;DHT22;9329;48.720;9.588;2022-09-09T11:42:18;25.70;95.30
18406;DHT22;9329;48.720;9.588;2022-09-09T11:44:45;26.20;94.40
18406;DHT22;9329;48.720;9.588;2022-09-09T11:47:20;26.40;91.20
18406;DHT22;9329;48.720;9.588;2022-09-09T11:49:48;26.80;91.20
18406;DHT22;9329;48.720;9.588;2022-09-09T11:52:21;26.90;89.60
18406;DHT22;9329;48.720;9.588;2022-09-09T11:54:49;26.70;87.70
18406;DHT22;9329;48.720;9.588;2022-09-09T11:57:23;26.40;90.00
18406;DHT22;9329;48.720;9.588;2022-09-09T11:59:51;25.90;87.70
18406;DHT22;9329;48.720;9.588;2022-09-09T12:05:15;25.30;94.20
18406;DHT22;9329;48.720;9.588;2022-09-09T12:07:48;25.60;93.90
18406;DHT22;9329;48.720;9.588;2022-09-09T12:10:20;25.30;94.90
18406;DHT22;9329;48.720;9.588;2022-09-09T12:12:47;25.00;96.80
18406;DHT22;9329;48.720;9.588;2022-09-09T12:15:22;24.20;99.10
18406;DHT22;9329;48.720;9.588;2022-09-09T12:17:55;23.70;99.90
18406;DHT22;9329;48.720;9.588;2022-09-09T12:20:23;23.50;99.90
18406;DHT22;9329;48.720;9.588;2022-09-09T12:23:08;24.30;99.90
18406;DHT22;9329;48.720;9.588;2022-09-09T12:25:46;26.00;99.90
18406;DHT22;9329;48.720;9.588;2022-09-09T12:28:15;28.50;98.30
18406;DHT22;9329;48.720;9.588;2022-09-09T12:30:45;29.50;93.90
18406;DHT22;9329;48.720;9.588;2022-09-09T12:33:15;28.90;92.00
18406;DHT22;9329;48.720;9.588;2022-09-09T12:35:43;27.30;91.80
18406;DHT22;9329;48.720;9.588;2022-09-09T12:38:13;26.40;95.10
18406;DHT22;9329;48.720;9.588;2022-09-09T12:40:42;26.80;97.20
18406;DHT22;9329;48.720;9.588;2022-09-09T12:43:16;28.90;92.30
18406;DHT22;9329;48.720;9.588;2022-09-09T12:45:43;30.40;90.60
18406;DHT22;9329;48.720;9.588;2022-09-09T12:48:10;31.20;81.60
18406;DHT22;9329;48.720;9.588;2022-09-09T12:50:43;32.20;78.90
18406;DHT22;9329;48.720;9.588;2022-09-09T12:53:14;33.30;69.60
18406;DHT22;9329;48.720;9.588;2022-09-09T12:55:48;33.90;67.30
18406;DHT22;9329;48.720;9.588;2022-09-09T12:58:17;34.50;62.70
18406;DHT22;9329;48.720;9.588;2022-09-09T13:00:48;34.60;57.20
18406;DHT22;9329;48.720;9.588;2022-09-09T13:03:18;34.20;59.90
18406;DHT22;9329;48.720;9.588;2022-09-09T13:05:45;34.50;57.90
18406;DHT22;9329;48.720;9.588;2022-09-09T13:08:17;35.20;55.60
18406;DHT22;9329;48.720;9.588;2022-09-09T13:10:47;36.30;48.90
18406;DHT22;9329;48.720;9.588;2022-09-09T13:13:15;37.20;47.20
18406;DHT22;9329;48.720;9.588;2022-09-09T13:15:48;37.40;44.60
18406;DHT22;9329;48.720;9.588;2022-09-09T13:18:15;36.50;45.60
18406;DHT22;9329;48.720;9.588;2022-09-09T13:20:45;37.50;47.90
18406;DHT22;9329;48.720;9.588;2022-09-09T13:23:12;37.40;44.20
18406;DHT22;9329;48.720;9.588;2022-09-09T13:25:41;38.20;43.30
18406;DHT22;9329;48.720;9.588;2022-09-09T13:28:20;38.20;41.60
18406;DHT22;9329;48.720;9.588;2022-09-09T13:30:54;38.60;42.30
18406;DHT22;9329;48.720;9.588;2022-09-09T13:33:28;38.70;44.30
18406;DHT22;9329;48.720;9.588;2022-09-09T13:35:56;38.50;39.60
18406;DHT22;9329;48.720;9.588;2022-09-09T13:38:24;38.80;39.50
18406;DHT22;9329;48.720;9.588;2022-09-09T13:40:53;37.10;42.40
18406;DHT22;9329;48.720;9.588;2022-09-09T13:43:23;35.10;44.10
18406;DHT22;9329;48.720;9.588;2022-09-09T13:45:55;33.10;46.80
18406;DHT22;9329;48.720;9.588;2022-09-09T13:48:23;32.00;48.50
18406;DHT22;9329;48.720;9.588;2022-09-09T13:50:55;31.40;51.50
18406;DHT22;9329;48.720;9.588;2022-09-09T13:53:24;31.00;50.40
18406;DHT22;9329;48.720;9.588;2022-09-09T13:55:51;30.80;52.50
18406;DHT22;9329;48.720;9.588;2022-09-09T13:58:19;30.30;53.10
18406;DHT22;9329;48.720;9.588;2022-09-09T14:00:48;28.90;54.30
18406;DHT22;9329;48.720;9.588;2022-09-09T14:03:15;30.40;56.00
18406;DHT22;9329;48.720;9.588;2022-09-09T14:05:42;31.70;51.30
18406;DHT22;9329;48.720;9.588;2022-09-09T14:08:11;31.70;52.40
18406;DHT22;9329;48.720;9.588;2022-09-09T14:10:41;30.90;47.80
18406;DHT22;9329;48.720;9.588;2022-09-09T14:13:08;29.60;51.50
18406;DHT22;9329;48.720;9.588;2022-09-09T14:15:39;29.10;55.40
18406;DHT22;9329;48.720;9.588;2022-09-09T14:18:08;31.00;53.20
18406;DHT22;9329;48.720;9.588;2022-09-09T14:20:35;33.20;50.60
18406;DHT22;9329;48.720;9.588;2022-09-09T14:23:02;34.90;47.20
18406;DHT22;9329;48.720;9.588;2022-09-09T14:25:29;36.30;43.70
18406;DHT22;9329;48.720;9.588;2022-09-09T14:27:56;37.50;42.40
18406;DHT22;9329;48.720;9.588;2022-09-09T14:30:23;38.00;41.00
18406;DHT22;9329;48.720;9.588;2022-09-09T14:32:51;38.20;39.10
18406;DHT22;9329;48.720;9.588;2022-09-09T14:35:18;38.40;40.20
18406;DHT22;9329;48.720;9.588;2022-09-09T14:37:45;38.80;39.80
18406;DHT22;9329;48.720;9.588;2022-09-09T14:40:12;39.50;40.80
18406;DHT22;9329;48.720;9.588;2022-09-09T14:42:39;37.60;39.00
18406;DHT22;9329;48.720;9.588;2022-09-09T14:45:07;35.80;40.60
18406;DHT22;9329;48.720;9.588;2022-09-09T14:47:34;33.60;45.80
18406;DHT22;9329;48.720;9.588;2022-09-09T14:50:05;32.80;48.60
18406;DHT22;9329;48.720;9.588;2022-09-09T14:52:33;32.70;49.10
18406;DHT22;9329;48.720;9.588;2022-09-09T14:55:02;32.90;50.50
18406;DHT22;9329;48.720;9.588;2022-09-09T14:57:29;33.90;45.10
18406;DHT22;9329;48.720;9.588;2022-09-09T14:59:56;33.90;43.60
18406;DHT22;9329;48.720;9.588;2022-09-09T15:02:23;33.80;45.00
18406;DHT22;9329;48.720;9.588;2022-09-09T15:04:49;34.20;44.00
18406;DHT22;9329;48.720;9.588;2022-09-09T15:07:19;34.80;42.90
18406;DHT22;9329;48.720;9.588;2022-09-09T15:09:47;34.60;42.70
18406;DHT22;9329;48.720;9.588;2022-09-09T15:12:15;33.30;43.30
18406;DHT22;9329;48.720;9.588;2022-09-09T15:14:44;32.00;47.10
18406;DHT22;9329;48.720;9.588;2022-09-09T15:17:13;30.60;48.20
18406;DHT22;9329;48.720;9.588;2022-09-09T15:19:43;30.00;48.60
18406;DHT22;9329;48.720;9.588;2022-09-09T15:22:09;29.50;53.30
18406;DHT22;9329;48.720;9.588;2022-09-09T15:24:38;28.50;53.00
18406;DHT22;9329;48.720;9.588;2022-09-09T15:27:08;28.80;53.90
18406;DHT22;9329;48.720;9.588;2022-09-09T15:29:35;28.30;56.30
18406;DHT22;9329;48.720;9.588;2022-09-09T15:32:04;28.20;55.10
18406;DHT22;9329;48.720;9.588;2022-09-09T15:34:31;27.90;56.50
18406;DHT22;9329;48.720;9.588;2022-09-09T15:36:58;27.20;54.40
18406;DHT22;9329;48.720;9.588;2022-09-09T15:39:26;25.80;56.60
18406;DHT22;9329;48.720;9.588;2022-09-09T15:41:54;25.50;58.70
18406;DHT22;9329;48.720;9.588;2022-09-09T15:44:21;25.50;59.30
18406;DHT22;9329;48.720;9.588;2022-09-09T15:46:51;24.80;59.60
18406;DHT22;9329;48.720;9.588;2022-09-09T15:49:19;24.80;60.90
18406;DHT22;9329;48.720;9.588;2022-09-09T15:51:47;24.40;60.90
18406;DHT22;9329;48.720;9.588;2022-09-09T15:54:17;24.50;62.60
18406;DHT22;9329;48.720;9.588;2022-09-09T15:56:45;24.20;61.70
18406;DHT22;9329;48.720;9.588;2022-09-09T15:59:15;24.00;65.30
18406;DHT22;9329;48.720;9.588;2022-09-09T16:01:42;23.80;66.40
18406;DHT22;9329;48.720;9.588;2022-09-09T16:04:09;23.90;64.90
18406;DHT22;9329;48.720;9.588;2022-09-09T16:06:36;23.60;66.80
18406;DHT22;9329;48.720;9.588;2022-09-09T16:09:05;23.70;66.90
18406;DHT22;9329;48.720;9.588;2022-09-09T16:11:34;23.90;68.40
18406;DHT22;9329;48.720;9.588;2022-09-09T16:14:02;23.80;68.00
18406;DHT22;9329;48.720;9.588;2022-09-09T16:16:30;23.60;66.00
18406;DHT22;9329;48.720;9.588;2022-09-09T16:18:58;23.20;67.70
18406;DHT22;9329;48.720;9.588;2022-09-09T16:21:26;23.10;66.80
18406;DHT22;9329;48.720;9.588;2022-09-09T16:23:54;23.10;69.80
18406;DHT22;9329;48.720;9.588;2022-09-09T16:26:21;22.90;71.00
18406;DHT22;9329;48.720;9.588;2022-09-09T16:28:48;23.00;70.60